sensor_id;sensor_type;location;lat;lon;timestamp;temperature;humidity
65369;HTU21D;51970;53.484;49.488;2022-11-20T00:00:52;0.60;86.61
65369;HTU21D;51970;53.484;49.488;2022-11-20T00:03:18;0.60;86.33
65369;HTU21D;51970;53.484;49.488;2022-11-20T00:05:44;0.61;86.94
65369;HTU21D;51970;53.484;49.488;2022-11-20T00:08:10;0.62;86.87
65369;HTU21D;51970;53.484;49.488;2022-11-20T00:10:37;0.63;86.25
65369;HTU21D;51970;53.484;49.488;2022-11-20T00:13:04;0.63;85.93
65369;HTU21D;51970;53.484;49.488;2022-11-20T00:15:30;0.63;85.38
65369;HTU21D;51970;53.484;49.488;2022-11-20T00:17:56;0.62;85.16
65369;HTU21D;51970;53.484;49.488;2022-11-20T00:20:22;0.58;84.94
65369;HTU21D;51970;53.484;49.488;2022-11-20T00:22:48;0.48;85.01
65369;HTU21D;51970;53.484;49.488;2022-11-20T00:25:14;0.50;85.33
65369;HTU21D;51970;53.484;49.488;2022-11-20T00:27:40;0.54;85.31
65369;HTU21D;51970;53.484;49.488;2022-11-20T00:30:07;0.58;85.51
65369;HTU21D;51970;53.484;49.488;2022-11-20T00:32:33;0.59;85.58
65369;HTU21D;51970;53.484;49.488;2022-11-20T00:34:59;0.63;85.85
65369;HTU21D;51970;53.484;49.488;2022-11-20T00:37:26;0.57;84.90
65369;HTU21D;51970;53.484;49.488;2022-11-20T00:39:52;0.54;85.13
65369;HTU21D;51970;53.484;49.488;2022-11-20T00:42:18;0.57;85.71
65369;HTU21D;51970;53.484;49.488;2022-11-20T00:44:44;0.55;85.35
65369;HTU21D;51970;53.484;49.488;2022-11-20T00:47:10;0.58;85.70
65369;HTU21D;51970;53.484;49.488;2022-11-20T00:49:36;0.61;85.64
65369;HTU21D;51970;53.484;49.488;2022-11-20T00:52:02;0.61;85.40
65369;HTU21D;51970;53.484;49.488;2022-11-20T00:54:28;0.61;85.49
65369;HTU21D;51970;53.484;49.488;2022-11-20T00:56:54;0.66;84.95
65369;HTU21D;51970;53.484;49.488;2022-11-20T00:59:20;0.63;85.13
65369;HTU21D;51970;53.484;49.488;2022-11-20T01:01:46;0.63;84.74
65369;HTU21D;51970;53.484;49.488;2022-11-20T01:04:12;0.60;84.31
65369;HTU21D;51970;53.484;49.488;2022-11-20T01:06:39;0.58;84.45
65369;HTU21D;51970;53.484;49.488;2022-11-20T01:09:10;0.52;84.81
65369;HTU21D;51970;53.484;49.488;2022-11-20T01:11:37;0.55;85.16
65369;HTU21D;51970;53.484;49.488;2022-11-20T01:14:07;0.66;85.05
65369;HTU21D;51970;53.484;49.488;2022-11-20T01:16:42;0.63;84.62
65369;HTU21D;51970;53.484;49.488;2022-11-20T01:19:15;0.55;84.57
65369;HTU21D;51970;53.484;49.488;2022-11-20T01:21:44;0.57;84.57
65369;HTU21D;51970;53.484;49.488;2022-11-20T01:24:13;0.55;85.09
65369;HTU21D;51970;53.484;49.488;2022-11-20T01:26:40;0.59;84.78
65369;HTU21D;51970;53.484;49.488;2022-11-20T01:29:10;0.60;84.90
65369;HTU21D;51970;53.484;49.488;2022-11-20T01:31:38;0.52;84.51
65369;HTU21D;51970;53.484;49.488;2022-11-20T01:34:06;0.49;84.84
65369;HTU21D;51970;53.484;49.488;2022-11-20T01:36:33;0.42;84.35
65369;HTU21D;51970;53.484;49.488;2022-11-20T01:39:04;0.37;84.79
65369;HTU21D;51970;53.484;49.488;2022-11-20T01:41:32;0.42;84.17
65369;HTU21D;51970;53.484;49.488;2022-11-20T01:44:20;0.39;84.45
65369;HTU21D;51970;53.484;49.488;2022-11-20T01:47:07;0.42;84.74
65369;HTU21D;51970;53.484;49.488;2022-11-20T01:49:41;0.40;84.87
65369;HTU21D;51970;53.484;49.488;2022-11-20T01:52:15;0.40;84.78
65369;HTU21D;51970;53.484;49.488;2022-11-20T01:54:47;0.43;85.13
65369;HTU21D;51970;53.484;49.488;2022-11-20T01:57:15;0.42;84.60
65369;HTU21D;51970;53.484;49.488;2022-11-20T01:59:48;0.43;85.05
65369;HTU21D;51970;53.484;49.488;2022-11-20T02:02:17;0.39;84.63
65369;HTU21D;51970;53.484;49.488;2022-11-20T02:04:43;0.43;84.90
65369;HTU21D;51970;53.484;49.488;2022-11-20T02:07:10;0.39;84.68
65369;HTU21D;51970;53.484;49.488;2022-11-20T02:09:37;0.40;84.60
65369;HTU21D;51970;53.484;49.488;2022-11-20T02:12:03;0.43;84.52
65369;HTU21D;51970;53.484;49.488;2022-11-20T02:14:30;0.39;84.55
65369;HTU21D;51970;53.484;49.488;2022-11-20T02:16:56;0.40;84.78
65369;HTU21D;51970;53.484;49.488;2022-11-20T02:19:30;0.47;85.03
65369;HTU21D;51970;53.484;49.488;2022-11-20T02:22:05;0.59;84.85
65369;HTU21D;51970;53.484;49.488;2022-11-20T02:24:33;0.49;84.32
65369;HTU21D;51970;53.484;49.488;2022-11-20T02:27:03;0.42;84.50
65369;HTU21D;51970;53.484;49.488;2022-11-20T02:32:21;0.43;84.56
65369;HTU21D;51970;53.484;49.488;2022-11-20T02:34:47;0.46;84.45
65369;HTU21D;51970;53.484;49.488;2022-11-20T02:37:14;0.43;84.19
65369;HTU21D;51970;53.484;49.488;2022-11-20T02:39:40;0.45;84.39
65369;HTU21D;51970;53.484;49.488;2022-11-20T02:42:07;0.46;84.47
65369;HTU21D;51970;53.484;49.488;2022-11-20T02:44:33;0.42;84.22
65369;HTU21D;51970;53.484;49.488;2022-11-20T02:46:59;0.36;84.10
65369;HTU21D;51970;53.484;49.488;2022-11-20T02:49:25;0.32;84.44
65369;HTU21D;51970;53.484;49.488;2022-11-20T02:51:51;0.28;84.37
65369;HTU21D;51970;53.484;49.488;2022-11-20T02:54:17;0.32;84.97
65369;HTU21D;51970;53.484;49.488;2022-11-20T02:56:43;0.40;84.83
65369;HTU21D;51970;53.484;49.488;2022-11-20T02:59:09;0.42;84.93
65369;HTU21D;51970;53.484;49.488;2022-11-20T03:01:35;0.38;84.69
65369;HTU21D;51970;53.484;49.488;2022-11-20T03:04:02;0.36;84.46
65369;HTU21D;51970;53.484;49.488;2022-11-20T03:06:28;0.38;84.83
65369;HTU21D;51970;53.484;49.488;2022-11-20T03:08:54;0.36;84.90
65369;HTU21D;51970;53.484;49.488;2022-11-20T03:11:20;0.35;85.56
65369;HTU21D;51970;53.484;49.488;2022-11-20T03:13:46;0.38;85.37
65369;HTU21D;51970;53.484;49.488;2022-11-20T03:16:18;0.46;85.55
65369;HTU21D;51970;53.484;49.488;2022-11-20T03:18:44;0.48;85.10
65369;HTU21D;51970;53.484;49.488;2022-11-20T03:21:12;0.55;85.55
65369;HTU21D;51970;53.484;49.488;2022-11-20T03:23:38;0.53;85.35
65369;HTU21D;51970;53.484;49.488;2022-11-20T03:26:15;0.54;85.58
65369;HTU21D;51970;53.484;49.488;2022-11-20T03:28:46;0.54;85.58
65369;HTU21D;51970;53.484;49.488;2022-11-20T03:31:14;0.54;85.25
65369;HTU21D;51970;53.484;49.488;2022-11-20T03:33:41;0.53;85.69
65369;HTU21D;51970;53.484;49.488;2022-11-20T03:36:13;0.52;85.60
65369;HTU21D;51970;53.484;49.488;2022-11-20T03:38:39;0.53;85.43
65369;HTU21D;51970;53.484;49.488;2022-11-20T03:41:08;0.51;85.55
65369;HTU21D;51970;53.484;49.488;2022-11-20T03:43:35;0.57;85.90
65369;HTU21D;51970;53.484;49.488;2022-11-20T03:46:01;0.55;85.93
65369;HTU21D;51970;53.484;49.488;2022-11-20T03:48:27;0.60;85.84
65369;HTU21D;51970;53.484;49.488;2022-11-20T03:51:07;0.58;85.80
65369;HTU21D;51970;53.484;49.488;2022-11-20T03:53:33;0.61;85.97
65369;HTU21D;51970;53.484;49.488;2022-11-20T03:55:59;0.64;85.91
65369;HTU21D;51970;53.484;49.488;2022-11-20T03:58:25;0.68;85.80
65369;HTU21D;51970;53.484;49.488;2022-11-20T04:00:51;0.66;85.45
65369;HTU21D;51970;53.484;49.488;2022-11-20T04:03:17;0.65;85.48
65369;HTU21D;51970;53.484;49.488;2022-11-20T04:05:43;0.61;85.64
65369;HTU21D;51970;53.484;49.488;2022-11-20T04:08:09;0.58;85.48
65369;HTU21D;51970;53.484;49.488;2022-11-20T04:10:35;0.59;85.84
65369;HTU21D;51970;53.484;49.488;2022-11-20T04:13:01;0.62;85.61
65369;HTU21D;51970;53.484;49.488;2022-11-20T04:15:27;0.61;85.29
65369;HTU21D;51970;53.484;49.488;2022-11-20T04:17:54;0.63;85.46
65369;HTU21D;51970;53.484;49.488;2022-11-20T04:20:20;0.62;85.30
65369;HTU21D;51970;53.484;49.488;2022-11-20T04:22:46;0.66;85.66
65369;HTU21D;51970;53.484;49.488;2022-11-20T04:25:12;0.67;85.19
65369;HTU21D;51970;53.484;49.488;2022-11-20T04:27:38;0.65;85.06
65369;HTU21D;51970;53.484;49.488;2022-11-20T04:30:04;0.66;85.18
65369;HTU21D;51970;53.484;49.488;2022-11-20T04:32:30;0.68;85.04
65369;HTU21D;51970;53.484;49.488;2022-11-20T04:34:58;0.68;84.75
65369;HTU21D;51970;53.484;49.488;2022-11-20T04:37:24;0.66;84.70
65369;HTU21D;51970;53.484;49.488;2022-11-20T04:39:50;0.68;85.04
65369;HTU21D;51970;53.484;49.488;2022-11-20T04:42:16;0.68;85.03
65369;HTU21D;51970;53.484;49.488;2022-11-20T04:44:54;0.71;84.58
65369;HTU21D;51970;53.484;49.488;2022-11-20T04:47:20;0.71;84.00
65369;HTU21D;51970;53.484;49.488;2022-11-20T04:49:46;0.67;84.18
65369;HTU21D;51970;53.484;49.488;2022-11-20T04:52:13;0.63;84.35
65369;HTU21D;51970;53.484;49.488;2022-11-20T04:54:39;0.65;84.63
65369;HTU21D;51970;53.484;49.488;2022-11-20T04:57:05;0.63;84.14
65369;HTU21D;51970;53.484;49.488;2022-11-20T04:59:31;0.65;84.10
65369;HTU21D;51970;53.484;49.488;2022-11-20T05:01:57;0.67;84.28
65369;HTU21D;51970;53.484;49.488;2022-11-20T05:04:23;0.69;84.49
65369;HTU21D;51970;53.484;49.488;2022-11-20T05:06:49;0.71;84.23
65369;HTU21D;51970;53.484;49.488;2022-11-20T05:09:16;0.68;84.73
65369;HTU21D;51970;53.484;49.488;2022-11-20T05:11:42;0.75;84.64
65369;HTU21D;51970;53.484;49.488;2022-11-20T05:14:07;0.76;84.39
65369;HTU21D;51970;53.484;49.488;2022-11-20T05:16:34;0.77;84.29
65369;HTU21D;51970;53.484;49.488;2022-11-20T05:19:02;0.80;84.26
65369;HTU21D;51970;53.484;49.488;2022-11-20T05:21:30;0.83;84.45
65369;HTU21D;51970;53.484;49.488;2022-11-20T05:23:57;0.84;83.83
65369;HTU21D;51970;53.484;49.488;2022-11-20T05:26:23;0.90;84.29
65369;HTU21D;51970;53.484;49.488;2022-11-20T05:28:50;0.91;84.35
65369;HTU21D;51970;53.484;49.488;2022-11-20T05:31:19;0.91;84.01
65369;HTU21D;51970;53.484;49.488;2022-11-20T05:33:45;0.92;84.13
65369;HTU21D;51970;53.484;49.488;2022-11-20T05:36:14;0.96;84.10
65369;HTU21D;51970;53.484;49.488;2022-11-20T05:38:41;0.96;83.99
65369;HTU21D;51970;53.484;49.488;2022-11-20T05:41:12;0.95;83.42
65369;HTU21D;51970;53.484;49.488;2022-11-20T05:43:39;1.01;83.93
65369;HTU21D;51970;53.484;49.488;2022-11-20T05:46:07;1.03;84.13
65369;HTU21D;51970;53.484;49.488;2022-11-20T05:48:37;1.03;83.67
65369;HTU21D;51970;53.484;49.488;2022-11-20T05:51:04;1.08;83.85
65369;HTU21D;51970;53.484;49.488;2022-11-20T05:53:32;1.09;82.99
65369;HTU21D;51970;53.484;49.488;2022-11-20T05:56:00;1.17;83.34
65369;HTU21D;51970;53.484;49.488;2022-11-20T05:58:26;1.24;83.52
65369;HTU21D;51970;53.484;49.488;2022-11-20T06:00:52;1.24;83.42
65369;HTU21D;51970;53.484;49.488;2022-11-20T06:03:19;1.26;83.42
65369;HTU21D;51970;53.484;49.488;2022-11-20T06:05:45;1.31;83.27
65369;HTU21D;51970;53.484;49.488;2022-11-20T06:08:11;1.29;83.28
65369;HTU21D;51970;53.484;49.488;2022-11-20T06:10:37;1.31;83.49
65369;HTU21D;51970;53.484;49.488;2022-11-20T06:13:03;1.33;83.39
65369;HTU21D;51970;53.484;49.488;2022-11-20T06:15:29;1.43;83.00
65369;HTU21D;51970;53.484;49.488;2022-11-20T06:17:55;1.36;82.91
65369;HTU21D;51970;53.484;49.488;2022-11-20T06:20:22;1.36;83.39
65369;HTU21D;51970;53.484;49.488;2022-11-20T06:22:49;1.41;83.28
65369;HTU21D;51970;53.484;49.488;2022-11-20T06:25:15;1.41;83.13
65369;HTU21D;51970;53.484;49.488;2022-11-20T06:27:41;1.35;82.95
65369;HTU21D;51970;53.484;49.488;2022-11-20T06:30:07;1.29;83.59
65369;HTU21D;51970;53.484;49.488;2022-11-20T06:32:33;1.29;83.82
65369;HTU21D;51970;53.484;49.488;2022-11-20T06:34:59;1.34;83.74
65369;HTU21D;51970;53.484;49.488;2022-11-20T06:37:25;1.32;83.51
65369;HTU21D;51970;53.484;49.488;2022-11-20T06:39:51;1.32;84.21
65369;HTU21D;51970;53.484;49.488;2022-11-20T06:42:17;1.35;84.48
65369;HTU21D;51970;53.484;49.488;2022-11-20T06:44:43;1.37;84.64
65369;HTU21D;51970;53.484;49.488;2022-11-20T06:47:11;1.42;84.90
65369;HTU21D;51970;53.484;49.488;2022-11-20T06:49:37;1.49;84.45
65369;HTU21D;51970;53.484;49.488;2022-11-20T06:52:04;1.52;84.55
65369;HTU21D;51970;53.484;49.488;2022-11-20T06:54:30;1.56;84.39
65369;HTU21D;51970;53.484;49.488;2022-11-20T06:56:56;1.61;84.45
65369;HTU21D;51970;53.484;49.488;2022-11-20T06:59:22;1.62;83.94
65369;HTU21D;51970;53.484;49.488;2022-11-20T07:01:48;1.63;83.94
65369;HTU21D;51970;53.484;49.488;2022-11-20T07:04:14;1.66;83.95
65369;HTU21D;51970;53.484;49.488;2022-11-20T07:06:40;1.66;84.11
65369;HTU21D;51970;53.484;49.488;2022-11-20T07:09:06;1.66;83.94
65369;HTU21D;51970;53.484;49.488;2022-11-20T07:11:32;1.69;83.97
65369;HTU21D;51970;53.484;49.488;2022-11-20T07:13:58;1.66;83.78
65369;HTU21D;51970;53.484;49.488;2022-11-20T07:16:24;1.60;84.23
65369;HTU21D;51970;53.484;49.488;2022-11-20T07:18:50;1.61;84.19
65369;HTU21D;51970;53.484;49.488;2022-11-20T07:21:17;1.62;84.23
65369;HTU21D;51970;53.484;49.488;2022-11-20T07:23:43;1.62;84.31
65369;HTU21D;51970;53.484;49.488;2022-11-20T07:26:10;1.63;84.35
65369;HTU21D;51970;53.484;49.488;2022-11-20T07:28:37;1.56;84.13
65369;HTU21D;51970;53.484;49.488;2022-11-20T07:31:04;1.53;84.17
65369;HTU21D;51970;53.484;49.488;2022-11-20T07:33:30;1.52;84.50
65369;HTU21D;51970;53.484;49.488;2022-11-20T07:35:59;1.52;84.36
65369;HTU21D;51970;53.484;49.488;2022-11-20T07:38:25;1.51;84.64
65369;HTU21D;51970;53.484;49.488;2022-11-20T07:40:56;1.51;84.93
65369;HTU21D;51970;53.484;49.488;2022-11-20T07:43:23;1.55;85.03
65369;HTU21D;51970;53.484;49.488;2022-11-20T07:45:51;1.58;84.68
65369;HTU21D;51970;53.484;49.488;2022-11-20T07:48:17;1.62;84.69
65369;HTU21D;51970;53.484;49.488;2022-11-20T07:50:43;1.61;84.89
65369;HTU21D;51970;53.484;49.488;2022-11-20T07:53:10;1.60;84.37
65369;HTU21D;51970;53.484;49.488;2022-11-20T07:55:38;1.57;84.74
65369;HTU21D;51970;53.484;49.488;2022-11-20T07:58:05;1.54;84.68
65369;HTU21D;51970;53.484;49.488;2022-11-20T08:00:31;1.61;85.03
65369;HTU21D;51970;53.484;49.488;2022-11-20T08:02:57;1.65;84.94
65369;HTU21D;51970;53.484;49.488;2022-11-20T08:05:24;1.79;84.65
65369;HTU21D;51970;53.484;49.488;2022-11-20T08:07:51;1.94;84.38
65369;HTU21D;51970;53.484;49.488;2022-11-20T08:10:17;1.99;83.67
65369;HTU21D;51970;53.484;49.488;2022-11-20T08:12:47;1.99;83.38
65369;HTU21D;51970;53.484;49.488;2022-11-20T08:15:33;2.14;83.30
65369;HTU21D;51970;53.484;49.488;2022-11-20T08:18:01;2.30;82.46
65369;HTU21D;51970;53.484;49.488;2022-11-20T08:20:27;2.29;82.08
65369;HTU21D;51970;53.484;49.488;2022-11-20T08:23:00;2.39;82.19
65369;HTU21D;51970;53.484;49.488;2022-11-20T08:25:28;2.43;82.13
65369;HTU21D;51970;53.484;49.488;2022-11-20T08:27:58;2.49;81.75
65369;HTU21D;51970;53.484;49.488;2022-11-20T08:30:27;2.50;81.65
65369;HTU21D;51970;53.484;49.488;2022-11-20T08:32:54;2.50;82.28
65369;HTU21D;51970;53.484;49.488;2022-11-20T08:35:21;2.59;81.72
65369;HTU21D;51970;53.484;49.488;2022-11-20T08:37:49;2.67;80.89
65369;HTU21D;51970;53.484;49.488;2022-11-20T08:40:15;2.57;82.00
65369;HTU21D;51970;53.484;49.488;2022-11-20T08:42:48;2.69;82.36
65369;HTU21D;51970;53.484;49.488;2022-11-20T08:45:16;2.72;81.68
65369;HTU21D;51970;53.484;49.488;2022-11-20T08:47:45;2.66;81.72
65369;HTU21D;51970;53.484;49.488;2022-11-20T08:50:13;2.75;81.49
65369;HTU21D;51970;53.484;49.488;2022-11-20T08:52:40;2.56;80.79
65369;HTU21D;51970;53.484;49.488;2022-11-20T08:55:07;2.43;82.10
65369;HTU21D;51970;53.484;49.488;2022-11-20T08:57:36;2.45;82.75
65369;HTU21D;51970;53.484;49.488;2022-11-20T09:00:04;2.47;82.32
65369;HTU21D;51970;53.484;49.488;2022-11-20T09:02:31;2.39;82.40
65369;HTU21D;51970;53.484;49.488;2022-11-20T09:04:58;2.27;82.71
65369;HTU21D;51970;53.484;49.488;2022-11-20T09:07:28;2.25;82.87
65369;HTU21D;51970;53.484;49.488;2022-11-20T09:09:54;2.30;83.43
65369;HTU21D;51970;53.484;49.488;2022-11-20T09:12:21;2.36;82.86
65369;HTU21D;51970;53.484;49.488;2022-11-20T09:14:47;2.35;82.47
65369;HTU21D;51970;53.484;49.488;2022-11-20T09:17:13;2.37;81.97
65369;HTU21D;51970;53.484;49.488;2022-11-20T09:19:40;2.38;82.91
65369;HTU21D;51970;53.484;49.488;2022-11-20T09:22:07;2.44;82.94
65369;HTU21D;51970;53.484;49.488;2022-11-20T09:24:33;2.45;81.94
65369;HTU21D;51970;53.484;49.488;2022-11-20T09:27:02;2.44;82.16
65369;HTU21D;51970;53.484;49.488;2022-11-20T09:29:31;2.50;81.68
65369;HTU21D;51970;53.484;49.488;2022-11-20T09:31:59;2.56;82.58
65369;HTU21D;51970;53.484;49.488;2022-11-20T09:34:28;2.56;81.80
65369;HTU21D;51970;53.484;49.488;2022-11-20T09:36:54;2.71;82.29
65369;HTU21D;51970;53.484;49.488;2022-11-20T09:39:20;2.76;81.59
65369;HTU21D;51970;53.484;49.488;2022-11-20T09:45:10;2.95;81.55
65369;HTU21D;51970;53.484;49.488;2022-11-20T09:48:04;3.11;81.08
65369;HTU21D;51970;53.484;49.488;2022-11-20T09:50:43;3.08;80.27
65369;HTU21D;51970;53.484;49.488;2022-11-20T09:53:16;2.95;79.80
65369;HTU21D;51970;53.484;49.488;2022-11-20T09:55:47;2.94;80.91
65369;HTU21D;51970;53.484;49.488;2022-11-20T10:03:53;3.05;80.22
65369;HTU21D;51970;53.484;49.488;2022-11-20T10:06:28;3.00;79.66
65369;HTU21D;51970;53.484;49.488;2022-11-20T10:12:04;2.87;79.86
65369;HTU21D;51970;53.484;49.488;2022-11-20T10:17:13;2.90;80.09
65369;HTU21D;51970;53.484;49.488;2022-11-20T10:34:00;2.64;80.69
65369;HTU21D;51970;53.484;49.488;2022-11-20T10:36:44;2.57;81.24
65369;HTU21D;51970;53.484;49.488;2022-11-20T10:47:56;2.74;81.27
65369;HTU21D;51970;53.484;49.488;2022-11-20T10:50:28;2.81;81.33
65369;HTU21D;51970;53.484;49.488;2022-11-20T10:53:05;2.71;81.14
65369;HTU21D;51970;53.484;49.488;2022-11-20T10:55:46;2.65;80.76
65369;HTU21D;51970;53.484;49.488;2022-11-20T10:58:30;2.53;81.36
65369;HTU21D;51970;53.484;49.488;2022-11-20T11:01:24;2.53;81.77
65369;HTU21D;51970;53.484;49.488;2022-11-20T11:03:52;2.37;81.10
65369;HTU21D;51970;53.484;49.488;2022-11-20T11:06:36;2.31;81.96
65369;HTU21D;51970;53.484;49.488;2022-11-20T11:09:29;2.30;82.40
65369;HTU21D;51970;53.484;49.488;2022-11-20T11:11:58;2.27;81.79
65369;HTU21D;51970;53.484;49.488;2022-11-20T11:14:25;2.17;81.75
65369;HTU21D;51970;53.484;49.488;2022-11-20T11:16:56;2.10;82.20
65369;HTU21D;51970;53.484;49.488;2022-11-20T11:19:22;2.00;82.01
65369;HTU21D;51970;53.484;49.488;2022-11-20T11:21:51;2.03;82.58
65369;HTU21D;51970;53.484;49.488;2022-11-20T11:24:23;1.87;82.62
65369;HTU21D;51970;53.484;49.488;2022-11-20T11:27:00;1.81;83.01
65369;HTU21D;51970;53.484;49.488;2022-11-20T11:29:33;1.78;83.30
65369;HTU21D;51970;53.484;49.488;2022-11-20T11:32:05;1.68;83.22
65369;HTU21D;51970;53.484;49.488;2022-11-20T11:34:32;1.62;83.48
65369;HTU21D;51970;53.484;49.488;2022-11-20T11:36:59;1.60;83.58
65369;HTU21D;51970;53.484;49.488;2022-11-20T11:39:27;1.56;83.72
65369;HTU21D;51970;53.484;49.488;2022-11-20T11:41:55;1.51;83.77
65369;HTU21D;51970;53.484;49.488;2022-11-20T11:44:33;1.42;83.90
65369;HTU21D;51970;53.484;49.488;2022-11-20T11:47:29;1.42;84.66
65369;HTU21D;51970;53.484;49.488;2022-11-20T11:53:12;1.37;84.84
65369;HTU21D;51970;53.484;49.488;2022-11-20T11:56:08;1.26;84.60
65369;HTU21D;51970;53.484;49.488;2022-11-20T11:58:44;1.21;85.19
65369;HTU21D;51970;53.484;49.488;2022-11-20T12:01:44;1.21;85.59
65369;HTU21D;51970;53.484;49.488;2022-11-20T12:06:51;1.16;85.76
65369;HTU21D;51970;53.484;49.488;2022-11-20T12:09:23;1.17;85.22
65369;HTU21D;51970;53.484;49.488;2022-11-20T12:11:55;1.12;85.51
65369;HTU21D;51970;53.484;49.488;2022-11-20T12:14:37;1.14;85.94
65369;HTU21D;51970;53.484;49.488;2022-11-20T12:17:03;1.14;85.71
65369;HTU21D;51970;53.484;49.488;2022-11-20T12:19:33;1.12;85.90
65369;HTU21D;51970;53.484;49.488;2022-11-20T12:24:59;1.13;86.13
65369;HTU21D;51970;53.484;49.488;2022-11-20T12:30:20;1.10;85.83
65369;HTU21D;51970;53.484;49.488;2022-11-20T12:36:17;1.13;86.30
65369;HTU21D;51970;53.484;49.488;2022-11-20T12:55:10;1.20;86.31
65369;HTU21D;51970;53.484;49.488;2022-11-20T12:58:12;1.24;85.94
65369;HTU21D;51970;53.484;49.488;2022-11-20T13:00:52;1.32;85.68
65369;HTU21D;51970;53.484;49.488;2022-11-20T13:03:59;1.31;85.57
65369;HTU21D;51970;53.484;49.488;2022-11-20T13:06:21;1.36;85.57
65369;HTU21D;51970;53.484;49.488;2022-11-20T13:08:56;1.37;85.57
65369;HTU21D;51970;53.484;49.488;2022-11-20T13:14:56;1.41;85.07
65369;HTU21D;51970;53.484;49.488;2022-11-20T13:17:45;1.41;85.34
65369;HTU21D;51970;53.484;49.488;2022-11-20T13:20:15;1.41;85.21
65369;HTU21D;51970;53.484;49.488;2022-11-20T13:22:51;1.36;85.02
65369;HTU21D;51970;53.484;49.488;2022-11-20T13:25:40;1.28;85.55
65369;HTU21D;51970;53.484;49.488;2022-11-20T13:30:36;1.27;85.61
65369;HTU21D;51970;53.484;49.488;2022-11-20T13:33:08;1.28;85.96
65369;HTU21D;51970;53.484;49.488;2022-11-20T13:35:39;1.33;85.90
65369;HTU21D;51970;53.484;49.488;2022-11-20T13:38:12;1.29;85.98
65369;HTU21D;51970;53.484;49.488;2022-11-20T13:43:23;1.23;85.88
65369;HTU21D;51970;53.484;49.488;2022-11-20T13:45:59;1.23;86.54
65369;HTU21D;51970;53.484;49.488;2022-11-20T14:02:00;1.41;86.24
65369;HTU21D;51970;53.484;49.488;2022-11-20T14:04:30;1.40;86.06
65369;HTU21D;51970;53.484;49.488;2022-11-20T14:06:58;1.41;85.98
65369;HTU21D;51970;53.484;49.488;2022-11-20T14:09:29;1.37;85.92
65369;HTU21D;51970;53.484;49.488;2022-11-20T14:11:57;1.32;86.05
65369;HTU21D;51970;53.484;49.488;2022-11-20T14:14:28;1.28;86.17
65369;HTU21D;51970;53.484;49.488;2022-11-20T14:17:18;1.33;86.27
65369;HTU21D;51970;53.484;49.488;2022-11-20T14:19:46;1.34;86.16
65369;HTU21D;51970;53.484;49.488;2022-11-20T14:22:17;1.32;86.25
65369;HTU21D;51970;53.484;49.488;2022-11-20T14:24:49;1.31;86.57
65369;HTU21D;51970;53.484;49.488;2022-11-20T14:27:18;1.31;86.14
65369;HTU21D;51970;53.484;49.488;2022-11-20T14:29:47;1.28;86.03
65369;HTU21D;51970;53.484;49.488;2022-11-20T14:32:16;1.25;86.02
65369;HTU21D;51970;53.484;49.488;2022-11-20T14:34:44;1.26;86.10
65369;HTU21D;51970;53.484;49.488;2022-11-20T14:37:20;1.33;86.21
65369;HTU21D;51970;53.484;49.488;2022-11-20T14:39:55;1.38;86.06
65369;HTU21D;51970;53.484;49.488;2022-11-20T14:42:27;1.35;86.06
65369;HTU21D;51970;53.484;49.488;2022-11-20T14:44:58;1.32;86.03
65369;HTU21D;51970;53.484;49.488;2022-11-20T14:47:29;1.27;86.31
65369;HTU21D;51970;53.484;49.488;2022-11-20T14:49:57;1.32;86.92
65369;HTU21D;51970;53.484;49.488;2022-11-20T14:52:26;1.32;86.61
65369;HTU21D;51970;53.484;49.488;2022-11-20T14:54:54;1.33;86.66
65369;HTU21D;51970;53.484;49.488;2022-11-20T14:57:24;1.37;86.57
65369;HTU21D;51970;53.484;49.488;2022-11-20T14:59:50;1.40;86.48
65369;HTU21D;51970;53.484;49.488;2022-11-20T15:02:16;1.45;86.56
65369;HTU21D;51970;53.484;49.488;2022-11-20T15:04:50;1.42;86.38
65369;HTU21D;51970;53.484;49.488;2022-11-20T15:07:28;1.46;86.62
65369;HTU21D;51970;53.484;49.488;2022-11-20T15:10:05;1.47;86.63
65369;HTU21D;51970;53.484;49.488;2022-11-20T15:12:35;1.52;86.85
65369;HTU21D;51970;53.484;49.488;2022-11-20T15:15:03;1.53;86.12
65369;HTU21D;51970;53.484;49.488;2022-11-20T15:17:33;1.50;86.60
65369;HTU21D;51970;53.484;49.488;2022-11-20T15:20:02;1.53;86.70
65369;HTU21D;51970;53.484;49.488;2022-11-20T15:22:29;1.53;86.64
65369;HTU21D;51970;53.484;49.488;2022-11-20T15:24:56;1.54;86.51
65369;HTU21D;51970;53.484;49.488;2022-11-20T15:27:28;1.55;86.68
65369;HTU21D;51970;53.484;49.488;2022-11-20T15:29:55;1.56;86.79
65369;HTU21D;51970;53.484;49.488;2022-11-20T15:32:21;1.54;86.81
65369;HTU21D;51970;53.484;49.488;2022-11-20T15:34:48;1.62;86.65
65369;HTU21D;51970;53.484;49.488;2022-11-20T15:37:14;1.60;86.10
65369;HTU21D;51970;53.484;49.488;2022-11-20T15:39:40;1.56;86.22
65369;HTU21D;51970;53.484;49.488;2022-11-20T15:42:07;1.55;86.56
65369;HTU21D;51970;53.484;49.488;2022-11-20T15:44:35;1.56;86.82
65369;HTU21D;51970;53.484;49.488;2022-11-20T15:47:01;1.56;86.77
65369;HTU21D;51970;53.484;49.488;2022-11-20T15:49:27;1.57;86.67
65369;HTU21D;51970;53.484;49.488;2022-11-20T15:51:53;1.60;86.58
65369;HTU21D;51970;53.484;49.488;2022-11-20T15:54:21;1.64;86.76
65369;HTU21D;51970;53.484;49.488;2022-11-20T15:56:51;1.64;86.27
65369;HTU21D;51970;53.484;49.488;2022-11-20T15:59:20;1.61;86.37
65369;HTU21D;51970;53.484;49.488;2022-11-20T16:01:46;1.63;86.54
65369;HTU21D;51970;53.484;49.488;2022-11-20T16:04:16;1.60;86.38
65369;HTU21D;51970;53.484;49.488;2022-11-20T16:06:46;1.55;86.33
65369;HTU21D;51970;53.484;49.488;2022-11-20T16:09:12;1.58;86.43
65369;HTU21D;51970;53.484;49.488;2022-11-20T16:11:39;1.61;86.58
65369;HTU21D;51970;53.484;49.488;2022-11-20T16:14:10;1.66;86.78
65369;HTU21D;51970;53.484;49.488;2022-11-20T16:16:55;1.65;86.64
65369;HTU21D;51970;53.484;49.488;2022-11-20T16:19:24;1.64;86.28
65369;HTU21D;51970;53.484;49.488;2022-11-20T16:21:50;1.58;86.50
65369;HTU21D;51970;53.484;49.488;2022-11-20T16:24:17;1.55;86.87
65369;HTU21D;51970;53.484;49.488;2022-11-20T16:26:43;1.60;86.95
65369;HTU21D;51970;53.484;49.488;2022-11-20T16:29:13;1.61;86.54
65369;HTU21D;51970;53.484;49.488;2022-11-20T16:31:39;1.61;86.54
65369;HTU21D;51970;53.484;49.488;2022-11-20T16:34:07;1.62;86.51
65369;HTU21D;51970;53.484;49.488;2022-11-20T16:36:33;1.57;86.34
65369;HTU21D;51970;53.484;49.488;2022-11-20T16:39:01;1.58;86.19
65369;HTU21D;51970;53.484;49.488;2022-11-20T16:41:31;1.53;86.23
65369;HTU21D;51970;53.484;49.488;2022-11-20T16:43:59;1.49;86.51
65369;HTU21D;51970;53.484;49.488;2022-11-20T16:46:34;1.52;86.43
65369;HTU21D;51970;53.484;49.488;2022-11-20T16:49:13;1.49;86.25
65369;HTU21D;51970;53.484;49.488;2022-11-20T16:51:39;1.46;86.51
65369;HTU21D;51970;53.484;49.488;2022-11-20T16:54:07;1.39;86.50
65369;HTU21D;51970;53.484;49.488;2022-11-20T16:56:34;1.39;86.53
65369;HTU21D;51970;53.484;49.488;2022-11-20T16:59:01;1.41;86.58
65369;HTU21D;51970;53.484;49.488;2022-11-20T17:01:28;1.46;86.53